Marion, MS (39342)

12:16 PM CDT on September 01, 2015 (GMT -0500)
Bailey, MS (Cook Road) | | Change Station
CLOSE
Current Station
Personal Weather Station
Location: Meridian, MS
Elevation: 424 ft
Nearby Weather Stations

Elev 424 ft 32.46 °N, 88.69 °W | Updated 17 seconds ago

Partly Cloudy
Partly Cloudy
89.5 °F
Feels Like 96 °F
N
2.0
Wind Variable Wind from SSE
Gusts 8.0 mph

Today
High -- | Low -- °F
--% Chance of Precip.
Yesterday
High -- | Low -- °F
Precip. -- in
6:29 AM 7:19 PM
Waning Gibbous, 87% visible
Pressure 30.08 in
Visibility 10.0 miles
Clouds Clear
Heat Index 96 °F
Dew Point 72 °F
Humidity 56%
Rainfall 0.00 in
Snow Depth Not available.
UV 7.0 out of 12
Pollen 9.00 out of 12
Air Quality Not available.
Flu Activity Not available.
METAR KMEI 011658Z 33003KT 10SM CLR 32/22 A3009 RMK AO2 SLP184 T03170217
Pressure 30.08 in
Visibility 10.0 miles
Clouds Clear
Heat Index 96 °F
Dew Point 72 °F
Humidity 56%
Rainfall 0.00 in
Snow Depth Not available.
UV 7.0 out of 12
Pollen 9.00 out of 12
Air Quality Not available.
Flu Activity Not available.
METAR KMEI 011658Z 33003KT 10SM CLR 32/22 A3009 RMK AO2 SLP184 T03170217

10-Day Weather Forecast

×

Almanac

Astronomy

Sep. 01, 2015 Rise Set
Actual Time
Civil Twilight
Nautical Twilight
Astronomical Twilight
Moon
Length of Visible Light
Length of Day
Tomorrow will be .
, % of the Moon is Illuminated

Today's Extremes

State Highs State Lows

Community

WunderPhotos

Upload Photos

1,851,569 photos uploaded!

WunderBlogs® & News

Nearby

Air Quality

  Air Quality AQ Index Pollutant
Not available.

Snow Depth

Station Depth Elevation

Earthquake Activity

City Distance Mag. Time & Date
Minimum magnitude displayed is 2.5.

Coastal Water Temperatures

Place Temperature

Stations

Nearby Weather Stations

Station Location Temp. Windchill Dew Point Humidity Wind Precip. Elev Updated Type